Time;durP1;ratioP1;P1;durP2;ratioP2;P2;SDS_P1;SDS_P2;PMS_P1;PMS_P2;Temp;Humidity;BMP_temperature;BMP_pressure;BME280_temperature;BME280_humidity;BME280_pressure;Samples;Min_cycle;Max_cycle;Signal;HPM_P1;HPM_P2
2021/09/17 00:00:33;;;;;;;2.00;1.80;;;21.30;99.90;;;21.77;59.42;101361.91;5030546;27;99104;-51
2021/09/17 00:03:00;;;;;;;3.00;2.13;;;21.40;99.90;;;21.85;59.21;101361.38;5026254;27;99481;-47
2021/09/17 00:05:27;;;;;;;1.87;1.70;;;21.50;99.90;;;21.93;58.86;101361.66;5027540;27;98518;-48
2021/09/17 00:07:53;;;;;;;2.23;2.00;;;21.70;99.90;;;22.00;58.58;101360.25;5027121;27;98638;-50
2021/09/17 00:10:20;;;;;;;2.30;2.10;;;21.80;99.90;;;22.06;58.56;101365.19;5024094;27;100027;-49
2021/09/17 00:12:47;;;;;;;2.20;2.10;;;21.90;99.90;;;22.09;58.51;101356.91;5023722;27;98543;-48
2021/09/17 00:15:13;;;;;;;1.90;1.80;;;21.90;99.90;;;22.13;58.40;101361.13;5007255;27;97536;-49
2021/09/17 00:17:40;;;;;;;2.43;2.20;;;21.90;99.90;;;22.16;58.11;101354.66;5028213;27;98246;-45
2021/09/17 00:20:08;;;;;;;2.40;2.20;;;22.00;99.90;;;22.15;58.13;101353.81;5023673;27;101142;-49
2021/09/17 00:22:34;;;;;;;2.67;2.43;;;21.90;99.90;;;22.10;58.27;101355.94;5010883;27;98481;-46
2021/09/17 00:25:00;;;;;;;2.40;2.20;;;21.90;99.90;;;22.04;58.22;101348.31;5027572;27;98662;-51
2021/09/17 00:27:26;;;;;;;2.50;2.30;;;21.80;99.90;;;21.99;58.59;101350.47;5027626;27;98709;-43
2021/09/17 00:29:51;;;;;;;2.00;1.90;;;21.70;99.90;;;22.00;58.54;101354.88;5010328;27;99324;-46
2021/09/17 00:32:17;;;;;;;2.53;2.33;;;21.70;99.90;;;21.99;58.58;101353.16;5023050;27;100446;-50
2021/09/17 00:34:43;;;;;;;2.47;2.27;;;21.70;99.90;;;21.98;58.48;101356.78;5027124;27;101028;-52
2021/09/17 00:37:08;;;;;;;2.27;2.07;;;21.70;99.90;;;21.94;58.43;101345.44;5023911;27;97737;-48
2021/09/17 00:39:34;;;;;;;3.37;3.00;;;21.60;99.90;;;21.93;58.54;101354.44;5029583;27;114062;-48
2021/09/17 00:42:00;;;;;;;2.60;2.40;;;21.60;99.90;;;21.89;58.69;101346.75;5028412;27;113418;-48
2021/09/17 00:44:28;;;;;;;2.50;2.30;;;21.50;99.90;;;21.86;58.71;101346.97;5035454;27;97895;-44
2021/09/17 00:46:56;;;;;;;3.23;2.40;;;21.50;99.90;;;21.83;58.85;101350.69;5044018;27;96749;-45
2021/09/17 00:49:23;;;;;;;3.17;2.27;;;21.40;99.90;;;21.79;58.92;101345.69;5033019;27;97737;-47
2021/09/17 00:51:50;;;;;;;2.43;2.23;;;21.40;99.90;;;21.76;58.96;101348.59;5042724;27;97160;-47
2021/09/17 00:54:17;;;;;;;3.27;2.53;;;21.40;99.90;;;21.75;59.18;101346.88;5040814;27;98355;-48
2021/09/17 00:56:45;;;;;;;2.60;2.40;;;21.30;99.90;;;21.77;59.23;101347.63;5044223;27;97556;-44
2021/09/17 00:59:11;;;;;;;2.53;2.33;;;21.40;99.90;;;21.79;59.12;101340.31;5034937;27;98166;-47
2021/09/17 01:01:39;;;;;;;2.37;2.17;;;21.40;99.90;;;21.79;59.07;101332.25;5042328;27;97256;-47
2021/09/17 01:04:08;;;;;;;4.07;3.50;;;21.40;99.90;;;21.75;59.01;101338.81;5042458;27;97334;-46
2021/09/17 01:06:38;;;;;;;2.40;2.20;;;21.40;99.90;;;21.71;59.38;101337.31;5064960;27;97372;-48
2021/09/17 01:09:06;;;;;;;2.07;1.90;;;21.30;99.90;;;21.69;59.41;101338.25;5045508;27;100386;-48
2021/09/17 01:11:33;;;;;;;2.83;2.60;;;21.30;99.90;;;21.68;59.41;101339.25;5045169;27;97194;-44
2021/09/17 01:14:00;;;;;;;2.50;2.20;;;21.30;99.90;;;21.68;59.39;101333.00;5042486;27;96998;-48
2021/09/17 01:16:26;;;;;;;2.53;2.33;;;21.30;99.90;;;21.67;59.50;101331.28;5038731;27;99978;-52
2021/09/17 01:18:53;;;;;;;3.10;2.03;;;21.30;99.90;;;21.65;59.48;101331.41;5040662;27;97635;-45
2021/09/17 01:21:23;;;;;;;2.83;2.20;;;21.20;99.90;;;21.64;59.51;101332.38;5037743;27;97263;-46
2021/09/17 01:23:49;;;;;;;2.47;2.17;;;21.20;99.90;;;21.64;59.52;101337.75;5062081;27;97422;-47
2021/09/17 01:26:17;;;;;;;2.70;2.50;;;21.30;99.90;;;21.65;59.64;101317.97;5021368;27;98075;-49
2021/09/17 01:28:43;;;;;;;4.30;2.60;;;21.20;99.90;;;21.66;59.50;101330.44;5043679;27;98968;-47
2021/09/17 01:31:09;;;;;;;2.23;2.03;;;21.30;99.90;;;21.65;59.76;101326.03;5041028;27;100008;-46
2021/09/17 01:33:36;;;;;;;2.60;2.40;;;21.20;99.90;;;21.64;59.82;101327.00;5046981;27;98153;-45
2021/09/17 01:36:09;;;;;;;2.10;1.90;;;21.20;99.90;;;21.65;59.65;101323.34;5028429;27;97089;-52
2021/09/17 01:38:38;;;;;;;2.20;2.00;;;21.20;99.90;;;21.69;59.67;101323.97;5045867;27;104021;-47
2021/09/17 01:41:05;;;;;;;2.37;2.17;;;21.30;99.90;;;21.69;59.39;101318.63;5041103;27;99358;-44
2021/09/17 01:43:31;;;;;;;2.77;2.20;;;21.30;99.90;;;21.76;59.45;101319.06;5050234;27;98400;-48
2021/09/17 01:45:57;;;;;;;2.47;2.27;;;21.40;99.90;;;21.74;59.44;101323.69;5055240;27;97820;-45
2021/09/17 01:48:27;;;;;;;2.13;2.03;;;21.40;99.90;;;21.76;59.43;101319.91;5042162;27;98347;-44
2021/09/17 01:50:53;;;;;;;2.73;2.43;;;21.40;99.90;;;21.76;59.40;101324.41;5047845;27;98300;-47
2021/09/17 01:53:19;;;;;;;2.20;2.00;;;21.40;99.90;;;21.77;59.43;101321.63;5044026;27;97560;-45
2021/09/17 01:55:45;;;;;;;3.20;2.20;;;21.40;99.90;;;21.78;59.40;101303.69;5043412;27;96985;-49
2021/09/17 01:58:11;;;;;;;2.23;2.03;;;21.40;99.90;;;21.81;59.26;101309.69;5036830;27;99800;-45
2021/09/17 02:00:38;;;;;;;2.23;2.07;;;21.50;99.90;;;21.81;59.24;101301.63;5045340;27;96624;-46
2021/09/17 02:03:04;;;;;;;2.20;2.07;;;21.50;99.90;;;21.82;59.15;101307.84;5049570;27;96741;-45
2021/09/17 02:05:30;;;;;;;4.57;2.97;;;21.40;99.90;;;21.78;59.21;101301.84;5044773;27;109295;-45
2021/09/17 02:07:57;;;;;;;2.90;2.53;;;21.40;99.90;;;21.76;59.32;101294.88;5047633;27;113652;-46
2021/09/17 02:10:24;;;;;;;3.20;2.00;;;21.40;99.90;;;21.73;59.43;101305.84;5040184;27;97401;-44
2021/09/17 02:12:50;;;;;;;3.20;2.50;;;21.30;99.90;;;21.68;59.52;101293.59;5048306;27;96783;-46
2021/09/17 02:15:16;;;;;;;2.87;2.57;;;21.30;99.90;;;21.60;59.78;101296.00;5041318;27;97053;-44
2021/09/17 02:17:42;;;;;;;4.77;3.30;;;21.10;99.90;;;21.53;59.94;101294.69;5045132;27;101428;-46
2021/09/17 02:20:08;;;;;;;2.10;1.90;;;21.10;99.90;;;21.50;60.07;101299.44;5043564;27;98342;-46
2021/09/17 02:22:34;;;;;;;2.23;1.93;;;21.00;99.90;;;21.50;60.33;101297.59;5044914;27;98062;-44
2021/09/17 02:25:03;;;;;;;2.40;2.10;;;21.00;99.90;;;21.51;59.99;101304.69;5045557;27;97535;-46
2021/09/17 02:27:29;;;;;;;4.30;2.57;;;21.00;99.90;;;21.49;59.89;101293.22;5057237;27;99420;-46
2021/09/17 02:29:55;;;;;;;2.50;2.30;;;21.00;99.90;;;21.46;60.03;101287.22;5046439;27;97435;-48
2021/09/17 02:32:21;;;;;;;2.03;1.90;;;21.00;99.90;;;21.45;60.12;101294.41;5036573;27;96926;-46
2021/09/17 02:34:47;;;;;;;2.23;2.03;;;21.00;99.90;;;21.46;60.23;101280.00;5042045;27;97203;-47
2021/09/17 02:37:13;;;;;;;2.20;2.00;;;21.00;99.90;;;21.49;60.09;101281.63;5040111;27;97863;-44
2021/09/17 02:39:39;;;;;;;2.50;1.90;;;21.00;99.90;;;21.51;59.99;101285.03;5042071;27;96878;-48
2021/09/17 02:42:05;;;;;;;2.20;1.97;;;21.10;99.90;;;21.54;60.12;101293.72;5039736;27;97255;-46
2021/09/17 02:44:32;;;;;;;1.83;1.73;;;21.10;99.90;;;21.59;59.86;101291.59;5043309;27;97238;-47
2021/09/17 02:46:58;;;;;;;2.10;1.90;;;21.20;99.90;;;21.62;59.59;101290.50;5049339;27;97617;-46
2021/09/17 02:49:24;;;;;;;2.63;2.10;;;21.30;99.90;;;21.62;59.64;101280.63;5038020;27;97785;-43
2021/09/17 02:51:50;;;;;;;2.20;2.00;;;21.30;99.90;;;21.66;59.56;101276.75;5048827;27;98052;-46
2021/09/17 02:54:15;;;;;;;2.70;1.93;;;21.30;99.90;;;21.67;59.44;101283.81;5037080;27;99985;-46
2021/09/17 02:56:41;;;;;;;2.13;1.90;;;21.30;99.90;;;21.66;59.61;101271.38;5050017;27;103401;-45
2021/09/17 02:59:07;;;;;;;2.30;2.03;;;21.30;99.90;;;21.67;59.57;101283.81;5041254;27;99073;-43
2021/09/17 03:01:33;;;;;;;3.37;2.73;;;21.30;99.90;;;21.63;59.48;101276.97;5045039;27;113097;-46
2021/09/17 03:03:59;;;;;;;2.37;1.90;;;21.30;99.90;;;21.63;59.76;101279.66;5048605;27;97540;-46
2021/09/17 03:06:25;;;;;;;1.77;1.67;;;21.20;99.90;;;21.63;59.78;101271.59;5039028;27;97327;-48
2021/09/17 03:08:51;;;;;;;1.63;1.53;;;21.20;99.90;;;21.66;59.73;101270.53;5047230;27;97407;-46
2021/09/17 03:11:17;;;;;;;1.80;1.70;;;21.20;99.90;;;21.66;59.60;101267.84;5046874;27;97882;-45
2021/09/17 03:13:43;;;;;;;2.50;1.83;;;21.30;99.90;;;21.66;59.65;101270.53;5049034;27;99793;-48
2021/09/17 03:16:11;;;;;;;2.00;1.80;;;21.30;99.90;;;21.64;59.73;101267.94;5040196;27;99475;-46
2021/09/17 03:18:38;;;;;;;2.00;1.80;;;21.20;99.90;;;21.65;59.76;101266.13;5050064;27;97389;-48
2021/09/17 03:21:04;;;;;;;3.17;1.97;;;21.20;99.90;;;21.65;59.80;101269.66;5035762;27;97799;-48
2021/09/17 03:23:30;;;;;;;1.90;1.80;;;21.30;99.90;;;21.68;59.83;101264.06;5042609;27;96599;-47
2021/09/17 03:25:56;;;;;;;2.27;2.07;;;21.30;99.90;;;21.72;59.73;101263.88;5043939;27;97707;-43
2021/09/17 03:28:22;;;;;;;2.67;1.87;;;21.30;99.90;;;21.73;59.53;101255.69;5046230;27;97442;-45
2021/09/17 03:30:48;;;;;;;1.93;1.60;;;21.40;99.90;;;21.76;59.38;101255.47;5045394;27;97346;-50
2021/09/17 03:33:15;;;;;;;2.10;1.90;;;21.40;99.90;;;21.85;59.15;101253.94;5043742;27;97141;-44
2021/09/17 03:35:42;;;;;;;2.07;1.90;;;21.50;99.90;;;21.89;58.86;101255.44;5044873;27;97802;-45
2021/09/17 03:38:08;;;;;;;3.33;1.77;;;21.60;99.90;;;21.90;58.78;101246.41;5039370;27;99120;-46
2021/09/17 03:40:37;;;;;;;3.23;1.90;;;21.60;99.90;;;21.90;58.75;101247.25;5051361;27;97189;-45
2021/09/17 03:43:04;;;;;;;1.70;1.60;;;21.60;99.90;;;21.89;58.99;101250.06;5034107;27;102677;-52
2021/09/17 03:45:32;;;;;;;2.40;2.00;;;21.60;99.90;;;21.89;59.04;101255.44;5047344;27;97682;-48
2021/09/17 03:48:03;;;;;;;2.70;1.73;;;21.60;99.90;;;21.90;58.84;101252.63;5038503;27;97195;-48
2021/09/17 03:50:29;;;;;;;2.63;1.80;;;21.60;99.90;;;21.90;58.94;101257.13;5043165;27;97194;-47
2021/09/17 03:52:55;;;;;;;2.23;1.90;;;21.60;99.90;;;21.89;58.98;101250.06;5041159;27;97414;-45
2021/09/17 03:55:21;;;;;;;2.10;1.90;;;21.60;99.90;;;21.85;58.99;101248.56;5044656;27;99224;-44
2021/09/17 03:57:47;;;;;;;2.20;2.00;;;21.50;99.90;;;21.84;59.11;101252.19;5045987;27;109135;-45
2021/09/17 04:00:13;;;;;;;2.07;1.97;;;21.50;99.90;;;21.83;59.08;101250.50;5038398;27;97706;-48
2021/09/17 04:02:39;;;;;;;2.37;1.87;;;21.50;99.90;;;21.83;59.03;101251.34;5045339;27;97529;-45
2021/09/17 04:05:05;;;;;;;2.67;1.73;;;21.50;99.90;;;21.80;59.15;101253.41;5037063;27;97400;-48
2021/09/17 04:07:40;;;;;;;2.50;1.87;;;21.40;99.90;;;21.79;59.31;101259.75;5043612;27;99579;-46
2021/09/17 04:10:09;;;;;;;2.20;2.00;;;21.40;99.90;;;21.76;59.25;101246.56;5036130;27;97137;-47
2021/09/17 04:12:35;;;;;;;2.03;1.87;;;21.40;99.90;;;21.72;59.43;101242.38;5042207;27;98375;-48
2021/09/17 04:15:01;;;;;;;2.10;1.70;;;21.30;99.90;;;21.72;59.36;101243.25;5041338;27;97731;-44
2021/09/17 04:17:27;;;;;;;1.83;1.73;;;21.30;99.90;;;21.76;59.32;101246.56;5042357;27;100075;-47
2021/09/17 04:19:53;;;;;;;1.93;1.73;;;21.40;99.90;;;21.78;59.31;101247.28;5042606;27;96967;-44
2021/09/17 04:22:19;;;;;;;1.63;1.53;;;21.40;99.90;;;21.81;59.11;101239.00;5035126;27;97249;-44
2021/09/17 04:24:44;;;;;;;1.93;1.73;;;21.50;99.90;;;21.86;58.93;101244.91;5045194;27;97668;-47
2021/09/17 04:27:10;;;;;;;1.60;1.43;;;21.60;99.90;;;21.89;58.91;101250.06;5040326;27;99302;-44
2021/09/17 04:29:36;;;;;;;1.77;1.63;;;21.60;99.90;;;21.92;58.98;101244.44;5042603;27;100944;-45
2021/09/17 04:32:03;;;;;;;1.90;1.80;;;21.60;99.90;;;21.94;58.92;101242.50;5034794;27;97315;-50
2021/09/17 04:34:29;;;;;;;2.70;1.97;;;21.70;99.90;;;21.93;58.90;101241.66;5043962;27;103218;-44
2021/09/17 04:36:55;;;;;;;2.57;1.80;;;21.70;99.90;;;21.95;58.75;101241.53;5041778;27;111915;-50
2021/09/17 04:39:21;;;;;;;2.17;1.93;;;21.70;99.90;;;21.97;58.71;101236.91;5046581;27;96820;-48
2021/09/17 04:41:47;;;;;;;2.00;1.80;;;21.70;99.90;;;22.01;58.72;101233.03;5044072;27;97536;-47
2021/09/17 04:44:13;;;;;;;1.80;1.60;;;21.80;99.90;;;22.07;58.56;101243.34;5036505;27;99546;-47
2021/09/17 04:46:39;;;;;;;1.90;1.80;;;21.80;99.90;;;22.09;58.40;101241.41;5042068;27;97165;-46
2021/09/17 04:49:04;;;;;;;1.50;1.40;;;21.90;99.90;;;22.12;58.29;101235.78;5042562;27;96755;-47
2021/09/17 04:51:31;;;;;;;2.37;1.83;;;21.90;99.90;;;22.12;58.24;101235.78;5032989;27;100014;-48
2021/09/17 04:53:57;;;;;;;2.10;1.77;;;21.90;99.90;;;22.15;58.25;101243.66;5041881;27;99911;-43
2021/09/17 04:56:23;;;;;;;2.60;2.23;;;21.90;99.90;;;22.17;58.12;101238.16;5038695;27;99480;-46
2021/09/17 04:58:49;;;;;;;1.97;1.50;;;22.00;99.90;;;22.16;58.18;101253.41;5041837;27;101261;-47
2021/09/17 05:01:15;;;;;;;1.80;1.70;;;22.00;99.90;;;22.19;58.05;101247.81;5038864;27;96947;-44
2021/09/17 05:03:41;;;;;;;2.43;1.50;;;22.00;99.90;;;22.18;58.14;101246.09;5039167;27;96939;-44
2021/09/17 05:06:07;;;;;;;1.70;1.60;;;22.00;99.90;;;22.16;58.15;101242.66;5037071;27;99275;-47
2021/09/17 05:08:33;;;;;;;2.10;1.90;;;22.00;99.90;;;22.13;58.21;101247.38;5035462;27;96937;-46
2021/09/17 05:10:58;;;;;;;2.60;2.00;;;21.90;99.90;;;22.11;58.21;101250.19;5049522;27;99192;-45
2021/09/17 05:13:24;;;;;;;1.90;1.80;;;21.90;99.90;;;22.09;58.14;101246.78;5043106;27;98443;-48
2021/09/17 05:15:50;;;;;;;2.17;1.90;;;21.80;99.90;;;22.06;58.33;101249.69;5050362;27;96928;-44
2021/09/17 05:18:16;;;;;;;2.27;2.03;;;21.80;99.90;;;22.03;58.49;101251.72;5033844;27;97481;-46
2021/09/17 05:20:42;;;;;;;2.60;2.10;;;21.70;99.90;;;22.01;58.43;101251.84;5044220;27;99457;-45
2021/09/17 05:23:07;;;;;;;2.17;1.93;;;21.70;99.90;;;22.01;58.45;101251.00;5040367;27;99853;-46
2021/09/17 05:25:33;;;;;;;2.77;1.67;;;21.70;99.90;;;21.98;58.56;101252.91;5042715;27;98163;-47
2021/09/17 05:27:59;;;;;;;2.10;1.70;;;21.70;99.90;;;21.96;58.64;101251.31;5047143;27;97066;-48
2021/09/17 05:30:25;;;;;;;2.07;1.83;;;21.70;99.90;;;21.97;58.69;101250.31;5036716;27;97437;-49
2021/09/17 05:32:51;;;;;;;3.03;2.03;;;21.70;99.90;;;22.00;58.61;101252.81;5051418;27;97667;-47
2021/09/17 05:35:17;;;;;;;1.70;1.60;;;21.70;99.90;;;22.02;58.57;101256.25;5037299;27;97584;-45
2021/09/17 05:37:43;;;;;;;2.40;2.10;;;21.70;99.90;;;22.00;58.57;101252.81;5048995;27;97754;-46
2021/09/17 05:40:10;;;;;;;2.20;2.00;;;21.70;99.90;;;22.02;58.65;101258.06;5039423;27;96700;-47
2021/09/17 05:42:36;;;;;;;4.17;2.20;;;21.70;99.90;;;22.00;58.52;101262.69;5043801;27;101070;-44
2021/09/17 05:45:05;;;;;;;3.20;2.60;;;21.70;99.90;;;21.97;58.59;101266.44;5038708;27;98539;-51
2021/09/17 05:47:31;;;;;;;2.20;1.97;;;21.70;99.90;;;21.93;58.83;101256.91;5040472;27;97521;-44
2021/09/17 05:49:57;;;;;;;1.90;1.80;;;21.60;99.90;;;21.93;58.84;101270.34;5044915;27;98759;-44
2021/09/17 05:52:23;;;;;;;2.53;1.83;;;21.60;99.90;;;21.94;58.78;101259.47;5036935;27;98004;-44
2021/09/17 05:54:49;;;;;;;2.37;1.70;;;21.60;99.90;;;21.95;58.92;101260.34;5046763;27;98164;-43
2021/09/17 05:57:16;;;;;;;2.70;1.90;;;21.70;99.90;;;21.97;58.73;101266.44;5032419;27;97589;-47
2021/09/17 05:59:42;;;;;;;1.93;1.70;;;21.70;99.90;;;22.00;58.66;101274.31;5045244;27;98935;-44
2021/09/17 06:02:08;;;;;;;2.20;2.00;;;21.70;99.90;;;22.02;58.66;101266.97;5034538;27;97527;-44
2021/09/17 06:04:35;;;;;;;2.10;1.80;;;21.80;99.90;;;22.05;58.58;101265.91;5038732;27;99558;-47
2021/09/17 06:07:01;;;;;;;2.40;2.07;;;21.80;99.90;;;22.09;58.46;101268.25;5044063;27;97171;-46
2021/09/17 06:09:27;;;;;;;2.10;1.90;;;21.90;99.90;;;22.10;58.39;101269.97;5042612;27;97395;-46
2021/09/17 06:11:53;;;;;;;1.60;1.50;;;21.90;99.90;;;22.14;58.40;101263.41;5041787;27;104809;-47
2021/09/17 06:14:19;;;;;;;1.77;1.67;;;21.90;99.90;;;22.19;58.07;101268.44;5054900;27;100094;-45
2021/09/17 06:16:44;;;;;;;2.83;1.80;;;22.00;99.90;;;22.22;58.16;101269.06;5025904;27;97761;-46
2021/09/17 06:19:10;;;;;;;2.00;1.80;;;22.10;99.90;;;22.23;58.01;101268.09;5042407;27;97243;-47
2021/09/17 06:21:36;;;;;;;2.37;1.90;;;22.10;99.90;;;22.21;57.97;101259.28;5033790;27;98250;-46
2021/09/17 06:24:03;;;;;;;2.13;1.93;;;22.00;99.90;;;22.22;57.92;101273.59;5040501;27;99940;-50
2021/09/17 06:26:32;;;;;;;1.90;1.70;;;22.00;99.90;;;22.23;58.10;101265.41;5033651;27;100549;-46
2021/09/17 06:29:06;;;;;;;1.90;1.70;;;22.00;99.90;;;22.23;58.08;101270.78;5057837;27;96867;-50
2021/09/17 06:31:34;;;;;;;2.40;2.20;;;22.10;99.90;;;22.21;58.04;101267.34;5062846;27;105275;-46
2021/09/17 06:34:00;;;;;;;2.40;2.20;;;22.00;99.90;;;22.23;57.94;101276.16;5045219;27;97077;-44
2021/09/17 06:36:26;;;;;;;1.97;1.83;;;22.00;99.90;;;22.25;57.89;101268.81;5061972;27;98008;-48
2021/09/17 06:38:52;;;;;;;2.47;1.70;;;22.00;99.90;;;22.26;57.98;101267.84;5041024;27;97915;-49
2021/09/17 06:41:18;;;;;;;2.40;1.70;;;22.10;99.90;;;22.29;57.75;101268.63;5041321;27;99843;-45
2021/09/17 06:43:44;;;;;;;2.10;1.90;;;22.10;99.90;;;22.32;57.67;101263.00;5041862;27;98223;-47
2021/09/17 06:46:10;;;;;;;1.80;1.70;;;22.10;99.90;;;22.35;57.50;101266.31;5038652;27;99105;-44
2021/09/17 06:48:36;;;;;;;2.40;1.73;;;22.20;99.90;;;22.37;57.47;101260.81;5048930;27;123112;-46
2021/09/17 06:51:02;;;;;;;2.10;1.90;;;22.20;99.90;;;22.40;57.55;101271.34;5041550;27;97635;-49
2021/09/17 06:53:28;;;;;;;2.50;1.73;;;22.30;99.90;;;22.41;57.41;101262.28;5044024;27;101915;-47
2021/09/17 06:55:54;;;;;;;1.73;1.63;;;22.30;99.90;;;22.42;57.26;101264.00;5041533;27;98966;-47
2021/09/17 06:58:20;;;;;;;1.77;1.50;;;22.30;99.90;;;22.44;57.26;101262.94;5042239;27;99343;-44
2021/09/17 07:00:46;;;;;;;1.63;1.53;;;22.30;99.90;;;22.46;57.10;101270.88;5042685;27;98329;-44
2021/09/17 07:03:12;;;;;;;1.90;1.80;;;22.30;99.90;;;22.47;57.16;101267.22;5033359;27;97840;-44
2021/09/17 07:05:38;;;;;;;1.83;1.73;;;22.40;99.90;;;22.48;57.08;101268.94;5043045;27;102838;-44
2021/09/17 07:08:06;;;;;;;2.40;2.20;;;22.40;99.90;;;22.48;57.11;101264.41;5025908;27;97547;-50
2021/09/17 07:10:35;;;;;;;2.37;1.80;;;22.40;99.90;;;22.52;57.06;101265.03;5044807;27;98082;-44
2021/09/17 07:13:01;;;;;;;2.50;2.03;;;22.50;99.90;;;22.53;56.81;101272.13;5042043;27;97384;-49
2021/09/17 07:15:27;;;;;;;2.17;1.97;;;22.40;99.90;;;22.53;56.88;101266.75;5046482;27;97354;-47
2021/09/17 07:17:53;;;;;;;6.97;4.40;;;22.40;99.90;;;22.52;56.91;101265.03;5054027;27;97107;-46
2021/09/17 07:20:20;;;;;;;2.80;1.90;;;22.40;99.90;;;22.52;56.96;101267.72;5033278;27;98661;-45
2021/09/17 07:22:46;;;;;;;3.03;2.20;;;22.40;99.90;;;22.53;56.87;101261.38;5039630;27;98362;-45
2021/09/17 07:25:12;;;;;;;2.30;2.10;;;22.40;99.90;;;22.55;56.88;101262.97;5051753;27;97541;-45
2021/09/17 07:27:38;;;;;;;2.00;1.80;;;22.50;99.90;;;22.55;56.86;101259.41;5045119;27;100388;-45
2021/09/17 07:30:06;;;;;;;2.00;1.77;;;22.50;99.90;;;22.57;56.96;101254.81;5027342;27;98276;-46
2021/09/17 07:32:34;;;;;;;2.90;1.90;;;22.50;99.90;;;22.58;56.81;101259.22;5047401;27;102112;-45
2021/09/17 07:35:00;;;;;;;2.77;2.10;;;22.50;99.90;;;22.54;56.93;101263.09;5046638;27;97735;-47
2021/09/17 07:37:26;;;;;;;7.00;4.77;;;22.40;99.90;;;22.46;56.78;101255.63;5059295;27;97319;-47
2021/09/17 07:39:52;;;;;;;2.53;2.30;;;22.30;99.90;;;22.41;57.30;101259.59;5046744;27;97708;-44
2021/09/17 07:42:18;;;;;;;2.57;2.20;;;22.20;99.90;;;22.40;57.31;101265.97;5044916;27;97454;-48
2021/09/17 07:44:44;;;;;;;2.43;2.10;;;22.20;99.90;;;22.42;57.43;101261.31;5046205;27;98948;-46
2021/09/17 07:47:10;;;;;;;2.70;1.97;;;22.20;99.90;;;22.44;57.25;101256.72;5043825;27;97262;-45
2021/09/17 07:49:36;;;;;;;2.23;2.03;;;22.30;99.90;;;22.48;57.14;101271.63;5042248;27;98794;-44
2021/09/17 07:52:02;;;;;;;1.90;1.80;;;22.30;99.90;;;22.51;57.30;101268.69;5045782;27;99343;-49
2021/09/17 07:54:28;;;;;;;2.57;1.90;;;22.40;99.90;;;22.54;57.10;101263.09;5037714;27;98406;-49
2021/09/17 07:56:55;;;;;;;2.07;1.70;;;22.40;99.90;;;22.56;57.01;101266.50;5030924;27;97679;-48
2021/09/17 07:59:21;;;;;;;2.73;2.23;;;22.40;99.90;;;22.55;57.02;101267.47;5017989;27;99069;-48
2021/09/17 08:01:47;;;;;;;2.20;2.00;;;22.40;99.90;;;22.54;57.06;101260.38;5027066;27;97391;-45
2021/09/17 08:04:13;;;;;;;2.37;1.87;;;22.40;99.90;;;22.56;57.06;101261.13;5025829;27;97261;-46
2021/09/17 08:06:39;;;;;;;7.23;6.20;;;22.40;99.90;;;22.56;56.66;101266.50;5026800;27;97990;-44
2021/09/17 08:09:06;;;;;;;4.93;2.50;;;22.40;99.90;;;22.53;57.03;101266.75;5022221;27;99488;-46
2021/09/17 08:11:33;;;;;;;2.57;1.90;;;22.40;99.90;;;22.54;56.91;101265.78;5027838;27;102476;-50
2021/09/17 08:13:59;;;;;;;3.07;2.10;;;22.40;99.90;;;22.56;57.21;101263.81;5032612;27;100092;-46
2021/09/17 08:16:25;;;;;;;4.10;2.70;;;22.40;99.90;;;22.54;56.98;101269.31;5039397;27;98498;-44
2021/09/17 08:18:51;;;;;;;2.00;1.80;;;22.40;99.90;;;22.52;57.02;101265.03;5030118;27;98936;-45
2021/09/17 08:21:17;;;;;;;2.33;2.13;;;22.40;99.90;;;22.54;57.02;101263.09;5025427;27;97909;-46
2021/09/17 08:23:43;;;;;;;3.77;2.83;;;22.40;99.90;;;22.53;57.09;101261.38;5030815;27;98570;-43
2021/09/17 08:26:10;;;;;;;6.17;4.70;;;22.40;99.90;;;22.53;56.90;101256.00;5021641;27;98780;-41
2021/09/17 08:28:36;;;;;;;14.17;10.20;;;22.40;99.90;;;22.47;54.78;101256.47;5030276;27;97753;-42
2021/09/17 08:31:03;;;;;;;4.33;3.53;;;22.30;99.90;;;22.39;57.41;101253.50;5028715;27;97421;-45
2021/09/17 08:33:30;;;;;;;4.40;3.70;;;22.20;99.90;;;22.32;57.37;101258.50;5022050;27;98812;-41
2021/09/17 08:35:57;;;;;;;19.10;10.93;;;22.10;99.90;;;22.25;56.44;101258.09;5030849;27;98464;-44
2021/09/17 08:38:23;;;;;;;2.80;2.60;;;22.00;99.90;;;22.27;57.86;101256.13;5025234;27;99574;-43
2021/09/17 08:40:57;;;;;;;2.63;2.07;;;22.10;99.90;;;22.34;57.65;101255.69;5028359;27;99077;-44
2021/09/17 08:43:24;;;;;;;2.53;2.20;;;22.20;99.90;;;22.32;57.62;101254.94;5025577;27;97730;-43
2021/09/17 08:45:51;;;;;;;15.20;9.67;;;22.10;99.90;;;22.30;56.62;101249.69;5043101;27;98621;-44
2021/09/17 08:48:17;;;;;;;2.77;2.50;;;22.10;99.90;;;22.33;57.52;101245.91;5021916;27;98889;-46
2021/09/17 08:50:48;;;;;;;12.70;10.73;;;22.20;99.90;;;22.26;56.15;101249.03;5028643;27;99217;-47
2021/09/17 08:53:17;;;;;;;26.27;20.53;;;22.10;99.90;;;22.12;55.99;101240.31;5021392;27;97810;-45
2021/09/17 08:55:46;;;;;;;3.70;3.03;;;21.90;99.90;;;22.16;57.94;101242.66;5046070;27;100100;-48
2021/09/17 08:58:12;;;;;;;10.73;7.73;;;21.90;99.90;;;22.17;56.17;101239.00;5015170;27;100454;-50
2021/09/17 09:00:41;;;;;;;4.43;2.80;;;22.00;99.90;;;22.20;57.88;101238.78;5026583;27;98058;-48
2021/09/17 09:03:09;;;;;;;9.77;7.30;;;22.00;99.90;;;22.18;57.62;101240.72;5022629;27;98338;-47
2021/09/17 09:05:38;;;;;;;5.13;3.97;;;22.00;99.90;;;22.20;57.89;101235.22;5027159;27;97318;-48
2021/09/17 09:08:06;;;;;;;2.80;2.50;;;22.00;99.90;;;22.22;57.95;101234.13;5038770;27;98616;-52
2021/09/17 09:10:32;;;;;;;5.80;4.77;;;22.10;99.90;;;22.25;57.79;101233.91;5027389;27;98317;-46
2021/09/17 09:13:06;;;;;;;7.07;5.03;;;22.10;99.90;;;22.26;57.73;101232.91;5048654;27;98618;-44
2021/09/17 09:15:34;;;;;;;7.23;5.20;;;22.10;99.90;;;22.24;57.84;101228.63;5024795;27;97895;-45
2021/09/17 09:18:11;;;;;;;7.37;6.20;;;22.10;99.90;;;22.24;57.90;101223.25;5030491;27;99669;-50
2021/09/17 09:20:57;;;;;;;2.43;2.23;;;22.00;99.90;;;22.21;58.02;101229.75;5021459;27;102593;-48
2021/09/17 09:23:26;;;;;;;8.50;7.17;;;22.00;99.90;;;22.23;57.80;101227.78;5023993;27;98130;-46
2021/09/17 09:25:52;;;;;;;12.80;8.73;;;22.00;99.90;;;22.20;57.90;101228.03;5026520;27;98454;-49
2021/09/17 09:28:26;;;;;;;13.23;9.67;;;22.00;99.90;;;22.18;57.79;101229.97;5021788;27;99212;-47
2021/09/17 09:30:55;;;;;;;11.37;7.03;;;21.90;99.90;;;22.10;58.10;101221.63;5028102;27;97731;-48
2021/09/17 09:33:25;;;;;;;4.27;3.30;;;21.80;99.90;;;22.15;58.13;101232.03;5027121;27;97887;-45
2021/09/17 09:36:12;;;;;;;3.27;2.80;;;21.90;99.90;;;22.23;57.91;101243.06;5041994;27;97960;-48
2021/09/17 09:38:45;;;;;;;2.73;2.50;;;22.00;99.90;;;22.27;57.90;101248.06;5024217;27;103736;-47
2021/09/17 09:41:15;;;;;;;7.00;4.63;;;22.10;99.90;;;22.35;57.77;101252.03;5022855;27;98998;-46
2021/09/17 09:44:00;;;;;;;3.27;2.50;;;22.20;99.90;;;22.39;57.52;101258.88;5028992;27;101452;-46
2021/09/17 09:46:35;;;;;;;3.13;2.57;;;22.30;99.90;;;22.45;57.45;101263.81;5025180;27;97940;-51
2021/09/17 09:49:12;;;;;;;2.60;2.40;;;22.40;99.90;;;22.49;57.29;101262.59;5031747;27;99767;-48
2021/09/17 09:51:41;;;;;;;2.80;2.43;;;22.40;99.90;;;22.53;57.31;101264.91;5026439;27;104366;-46
2021/09/17 09:54:09;;;;;;;21.53;14.17;;;22.50;99.90;;;22.54;56.26;101257.72;5027561;27;99400;-44
2021/09/17 09:56:37;;;;;;;6.43;5.50;;;22.50;99.90;;;22.54;57.04;101260.38;5031282;27;98466;-45
2021/09/17 09:59:06;;;;;;;3.40;2.47;;;22.50;99.90;;;22.51;57.25;101253.44;5025866;27;100187;-50
2021/09/17 10:01:40;;;;;;;2.97;2.70;;;22.50;99.90;;;22.52;57.21;101262.34;5033004;27;99979;-48
2021/09/17 10:04:07;;;;;;;10.90;8.00;;;22.50;99.90;;;22.58;56.94;101263.72;5025570;27;97730;-46
2021/09/17 10:06:40;;;;;;;3.47;2.97;;;22.60;99.90;;;22.61;56.98;101263.50;5031010;27;98150;-45
2021/09/17 10:09:10;;;;;;;4.57;2.50;;;22.60;99.90;;;22.61;56.89;101269.72;5023107;27;98282;-50